Mill Village, Vermont
Current Conditions -  °F | °C
As of 7:54 PM on Thursday 18 Dec 2014 (Local Time) from KMVL Reporting Station
Unknown Precip Unknown Precip  
Wind Chill: 24°   Ceiling: 2100
Heat Index: 30°   Visibility: 7mi
Dew Point: 24°   Wind: 6mph
Humidity: 79%   Direction: NA
Pressure: 29.89"   Gusts: NA
Location:  44.6584°N, 72.4169°W
Report Text: KMVL 190054Z AUTO VRB05KT 7SM UP OVC021 M01/M04 A2989 RMK AO2 SLP132 P0000 T10111044 TSNO
Loading
Personal Weather Stations






























Interactive Weather Map New forecast layout! Learn more

10-Day Weather Forecast

Advertisements
Track Severe Weather on mobile